Time;durP1;ratioP1;P1;durP2;ratioP2;P2;SDS_P1;SDS_P2;PMS_P1;PMS_P2;Temp;Humidity;BMP_temperature;BMP_pressure;BME280_temperature;BME280_humidity;BME280_pressure;Samples;Min_cycle;Max_cycle;Signal;HPM_P1;HPM_P2
2022/11/15 00:00:52;;;;;;;10.20;9.20;;;12.90;99.90;;;;;;5041008;28;20452;-69
2022/11/15 00:03:20;;;;;;;9.03;8.23;;;12.80;99.90;;;;;;5053147;28;20424;-66
2022/11/15 00:05:46;;;;;;;9.00;8.13;;;12.80;99.90;;;;;;5053167;28;20941;-66
2022/11/15 00:08:12;;;;;;;10.40;9.27;;;12.90;99.90;;;;;;5051440;28;20550;-66
2022/11/15 00:10:38;;;;;;;10.87;9.90;;;12.90;99.90;;;;;;5052093;28;20192;-66
2022/11/15 00:13:08;;;;;;;10.33;9.20;;;13.00;99.90;;;;;;5030149;28;20193;-66
2022/11/15 00:15:38;;;;;;;10.53;9.53;;;13.00;99.90;;;;;;5051054;28;21082;-66
2022/11/15 00:18:05;;;;;;;9.67;8.77;;;13.10;99.90;;;;;;5032969;28;20437;-66
2022/11/15 00:20:34;;;;;;;10.20;9.20;;;13.10;99.90;;;;;;5052624;28;20420;-66
2022/11/15 00:23:02;;;;;;;9.37;8.57;;;13.00;99.90;;;;;;5052280;28;20417;-66
2022/11/15 00:25:28;;;;;;;9.87;8.83;;;13.00;99.90;;;;;;5040064;28;20445;-67
2022/11/15 00:27:58;;;;;;;9.47;8.67;;;13.00;99.90;;;;;;5025446;28;20442;-69
2022/11/15 00:30:24;;;;;;;11.80;9.93;;;13.10;99.90;;;;;;5052166;28;20190;-66
2022/11/15 00:32:52;;;;;;;10.30;8.80;;;13.10;99.90;;;;;;5040541;28;20422;-66
2022/11/15 00:35:18;;;;;;;10.80;9.80;;;13.10;99.90;;;;;;5046688;28;20469;-66
2022/11/15 00:37:44;;;;;;;10.80;9.70;;;13.00;99.90;;;;;;5049395;28;20846;-66
2022/11/15 00:40:12;;;;;;;10.07;9.13;;;13.00;99.90;;;;;;5039412;28;20464;-66
2022/11/15 00:42:38;;;;;;;10.23;8.97;;;13.00;99.90;;;;;;5053435;28;20437;-66
2022/11/15 00:45:04;;;;;;;11.80;8.80;;;13.00;99.90;;;;;;5052717;28;20913;-66
2022/11/15 00:47:30;;;;;;;9.43;8.57;;;13.10;99.90;;;;;;5035351;28;20488;-66
2022/11/15 00:49:56;;;;;;;10.20;9.07;;;13.20;99.90;;;;;;5052707;28;20414;-66
2022/11/15 00:52:21;;;;;;;10.60;9.50;;;13.30;99.90;;;;;;5053218;28;20653;-66
2022/11/15 00:54:47;;;;;;;10.10;9.10;;;13.20;99.90;;;;;;5053323;28;20561;-66
2022/11/15 00:57:13;;;;;;;10.30;9.40;;;13.30;99.90;;;;;;5052830;28;20205;-66
2022/11/15 00:59:39;;;;;;;10.23;9.13;;;13.30;99.90;;;;;;5053154;28;20221;-66
2022/11/15 01:02:04;;;;;;;9.17;8.43;;;13.30;99.90;;;;;;5052022;28;20223;-69
2022/11/15 01:04:30;;;;;;;10.20;9.20;;;13.30;99.90;;;;;;5052211;28;20266;-66
2022/11/15 01:06:56;;;;;;;9.60;8.80;;;13.40;99.90;;;;;;5051902;28;20214;-66
2022/11/15 01:09:21;;;;;;;10.20;9.23;;;13.40;99.90;;;;;;5050583;28;20206;-66
2022/11/15 01:11:47;;;;;;;10.53;9.53;;;13.40;99.90;;;;;;5052653;28;20179;-66
2022/11/15 01:14:13;;;;;;;11.60;9.97;;;13.30;99.90;;;;;;5034422;28;20187;-66
2022/11/15 01:16:39;;;;;;;13.37;9.40;;;13.20;99.90;;;;;;5052863;28;20336;-66
2022/11/15 01:19:05;;;;;;;9.80;8.80;;;13.10;99.90;;;;;;5034352;28;20520;-66
2022/11/15 01:21:30;;;;;;;11.40;9.33;;;13.20;99.90;;;;;;5033483;28;20641;-66
2022/11/15 01:23:57;;;;;;;10.23;9.23;;;13.20;99.90;;;;;;5051223;28;20192;-66
2022/11/15 01:26:24;;;;;;;10.57;9.67;;;13.20;99.90;;;;;;5052891;28;20180;-66
2022/11/15 01:28:49;;;;;;;10.43;9.33;;;13.30;99.90;;;;;;5052659;28;20441;-66
2022/11/15 01:31:18;;;;;;;11.17;9.13;;;13.30;99.90;;;;;;5034255;28;20885;-66
2022/11/15 01:33:44;;;;;;;10.90;9.80;;;13.20;99.90;;;;;;5034107;28;20182;-66
2022/11/15 01:36:13;;;;;;;10.63;9.73;;;13.30;99.90;;;;;;5051776;28;20474;-66
2022/11/15 01:38:38;;;;;;;10.20;9.30;;;13.30;99.90;;;;;;5052541;28;20422;-66
2022/11/15 01:41:04;;;;;;;11.50;10.07;;;13.40;99.90;;;;;;5048113;28;20437;-66
2022/11/15 01:43:31;;;;;;;9.73;8.83;;;13.50;99.90;;;;;;5052378;28;20649;-66
2022/11/15 01:46:25;;;;;;;9.83;9.00;;;13.60;99.90;;;;;;5051612;28;20177;-67
2022/11/15 01:48:53;;;;;;;9.30;8.50;;;13.50;99.90;;;;;;5052461;28;20465;-66
2022/11/15 01:51:22;;;;;;;9.40;8.43;;;13.50;99.90;;;;;;5052091;28;20770;-66
2022/11/15 01:53:52;;;;;;;10.67;9.67;;;13.60;99.90;;;;;;5052386;28;20415;-66
2022/11/15 01:56:24;;;;;;;10.20;9.17;;;13.60;99.90;;;;;;5051734;28;20451;-66
2022/11/15 01:58:52;;;;;;;10.17;9.00;;;13.70;99.90;;;;;;5043057;28;20475;-66
2022/11/15 02:01:19;;;;;;;10.33;9.33;;;13.60;99.90;;;;;;5047785;28;20825;-66
2022/11/15 02:04:11;;;;;;;11.13;9.60;;;13.60;99.90;;;;;;5051387;28;20518;-66
2022/11/15 02:06:38;;;;;;;9.97;9.00;;;13.70;99.90;;;;;;5051661;28;20495;-66
2022/11/15 02:09:03;;;;;;;9.93;8.93;;;13.70;99.90;;;;;;5050883;28;20435;-66
2022/11/15 02:11:29;;;;;;;12.90;9.30;;;13.70;99.90;;;;;;5051573;28;20447;-66
2022/11/15 02:13:57;;;;;;;11.00;9.77;;;13.80;99.90;;;;;;5033631;28;20189;-66
2022/11/15 02:16:54;;;;;;;11.67;9.33;;;13.70;99.90;;;;;;5051136;28;20518;-66
2022/11/15 02:19:31;;;;;;;11.63;8.80;;;13.70;99.90;;;;;;5050799;28;20421;-67
2022/11/15 02:22:09;;;;;;;10.83;9.70;;;13.70;99.90;;;;;;5051597;28;20476;-69
2022/11/15 02:24:49;;;;;;;11.03;10.00;;;13.70;99.90;;;;;;5051389;28;20441;-66
2022/11/15 02:27:32;;;;;;;10.47;9.50;;;13.50;99.90;;;;;;5051569;28;20409;-66
2022/11/15 02:30:19;;;;;;;11.10;9.50;;;13.50;99.90;;;;;;5051948;28;20485;-69
2022/11/15 02:33:08;;;;;;;10.77;9.67;;;13.60;99.90;;;;;;5051053;28;20477;-66
2022/11/15 02:35:46;;;;;;;10.40;9.30;;;13.60;99.90;;;;;;5044166;28;20466;-66
2022/11/15 02:38:35;;;;;;;14.73;10.17;;;13.60;99.90;;;;;;5051009;28;20832;-66
2022/11/15 02:41:15;;;;;;;11.63;10.43;;;13.50;99.90;;;;;;5038611;28;20519;-66
2022/11/15 02:43:57;;;;;;;9.97;9.10;;;13.50;99.90;;;;;;5051665;28;20402;-66
2022/11/15 02:49:14;;;;;;;10.43;9.40;;;13.50;99.90;;;;;;5052661;28;20844;-66
2022/11/15 02:51:42;;;;;;;11.80;9.90;;;13.50;99.90;;;;;;5036492;28;20438;-66
2022/11/15 02:54:14;;;;;;;10.70;9.60;;;13.50;99.90;;;;;;5054837;28;20449;-66
2022/11/15 02:56:40;;;;;;;11.00;9.87;;;13.50;99.90;;;;;;5038150;28;20424;-66
2022/11/15 02:59:15;;;;;;;12.40;10.40;;;13.40;99.90;;;;;;5036922;28;20497;-66
2022/11/15 03:02:13;;;;;;;11.00;9.97;;;13.40;99.90;;;;;;5054848;28;20442;-66
2022/11/15 03:05:15;;;;;;;10.50;9.50;;;13.40;99.90;;;;;;5053705;28;20444;-66
2022/11/15 03:07:46;;;;;;;9.97;9.00;;;13.40;99.90;;;;;;5055230;28;20791;-66
2022/11/15 03:10:24;;;;;;;10.47;9.30;;;13.40;99.90;;;;;;5054051;28;20437;-66
2022/11/15 03:13:09;;;;;;;11.23;10.23;;;13.40;99.90;;;;;;5055197;28;20498;-66
2022/11/15 03:15:48;;;;;;;10.50;9.40;;;13.50;99.90;;;;;;5054879;28;21031;-66
2022/11/15 03:18:27;;;;;;;10.67;9.63;;;13.50;99.90;;;;;;5054210;28;20454;-66
2022/11/15 03:20:54;;;;;;;10.23;9.10;;;13.50;99.90;;;;;;5055128;28;20398;-66
2022/11/15 03:23:20;;;;;;;9.93;9.03;;;13.50;99.90;;;;;;5053431;28;20789;-66
2022/11/15 03:25:50;;;;;;;8.50;7.70;;;13.60;99.90;;;;;;5035096;28;20420;-66
2022/11/15 03:28:24;;;;;;;9.00;8.30;;;13.60;99.90;;;;;;5034364;28;20495;-66
2022/11/15 03:30:53;;;;;;;9.17;8.40;;;13.70;99.90;;;;;;5034979;28;20423;-66
2022/11/15 03:33:21;;;;;;;8.43;7.63;;;13.70;99.90;;;;;;5034204;28;20427;-66
2022/11/15 03:35:48;;;;;;;9.60;8.70;;;13.70;99.90;;;;;;5046913;28;20480;-66
2022/11/15 03:38:26;;;;;;;8.70;7.90;;;13.60;99.90;;;;;;5053560;28;20752;-66
2022/11/15 03:41:07;;;;;;;9.53;8.63;;;13.70;99.90;;;;;;5048166;28;20438;-66
2022/11/15 03:43:41;;;;;;;9.00;8.20;;;13.70;99.90;;;;;;5054678;28;20750;-66
2022/11/15 03:46:33;;;;;;;8.10;7.33;;;13.60;99.90;;;;;;5053952;28;20414;-66
2022/11/15 03:49:14;;;;;;;8.50;7.73;;;13.70;99.90;;;;;;5050351;28;20497;-69
2022/11/15 03:51:40;;;;;;;8.07;7.37;;;13.70;99.90;;;;;;5034653;28;20771;-66
2022/11/15 03:54:06;;;;;;;10.47;8.33;;;13.70;99.90;;;;;;5033808;28;20415;-66
2022/11/15 03:56:31;;;;;;;10.83;9.10;;;13.70;99.90;;;;;;5034320;28;20472;-66
2022/11/15 03:58:57;;;;;;;9.20;8.30;;;13.70;99.90;;;;;;5034369;28;20430;-66
2022/11/15 04:01:23;;;;;;;8.80;7.90;;;13.80;99.90;;;;;;5032388;28;20637;-66
2022/11/15 04:03:48;;;;;;;8.87;8.00;;;13.80;99.90;;;;;;5048827;28;20195;-66
2022/11/15 04:06:14;;;;;;;9.17;8.37;;;13.80;99.90;;;;;;5053244;28;20176;-66
2022/11/15 04:08:40;;;;;;;8.97;8.20;;;13.80;99.90;;;;;;5054122;28;20249;-66
2022/11/15 04:11:05;;;;;;;10.40;8.27;;;13.80;99.90;;;;;;5053474;28;20208;-66
2022/11/15 04:13:31;;;;;;;9.70;8.70;;;13.80;99.90;;;;;;5054047;28;20238;-66
2022/11/15 04:15:56;;;;;;;9.57;8.80;;;13.70;99.90;;;;;;5053178;28;20751;-66
2022/11/15 04:18:24;;;;;;;8.87;8.10;;;13.70;99.90;;;;;;5053340;28;20671;-66
2022/11/15 04:26:20;;;;;;;9.30;8.50;;;13.70;99.90;;;;;;5035286;28;20475;-66
2022/11/15 04:31:30;;;;;;;8.90;8.00;;;13.80;99.90;;;;;;5053349;28;20910;-66
2022/11/15 04:33:56;;;;;;;8.50;7.80;;;13.90;99.90;;;;;;5052702;28;20467;-66
2022/11/15 04:39:06;;;;;;;11.33;10.53;;;13.90;99.90;;;;;;5052202;28;20173;-66
2022/11/15 04:41:32;;;;;;;7.10;6.47;;;13.80;99.90;;;;;;5052772;28;20431;-66
2022/11/15 04:43:58;;;;;;;8.67;7.80;;;13.90;99.90;;;;;;5052499;28;20188;-67
2022/11/15 04:46:24;;;;;;;7.47;6.73;;;13.80;99.90;;;;;;5032865;28;20185;-66
2022/11/15 04:48:51;;;;;;;12.90;11.90;;;13.80;99.90;;;;;;5033131;28;20648;-66
2022/11/15 04:51:17;;;;;;;8.20;7.50;;;13.80;99.90;;;;;;5014251;28;20459;-66
2022/11/15 04:53:43;;;;;;;8.50;7.30;;;13.90;99.90;;;;;;5033419;28;20430;-66
2022/11/15 04:56:08;;;;;;;8.67;7.73;;;13.80;99.90;;;;;;5032562;28;20465;-66
2022/11/15 04:58:35;;;;;;;8.97;8.27;;;13.80;99.90;;;;;;5033526;28;20208;-66
2022/11/15 05:01:11;;;;;;;9.00;8.20;;;13.80;99.90;;;;;;5033212;28;20182;-66
2022/11/15 05:06:22;;;;;;;8.20;7.50;;;13.90;99.90;;;;;;5051453;28;20442;-68
2022/11/15 05:08:48;;;;;;;8.40;7.50;;;13.80;99.90;;;;;;5035136;28;20509;-67
2022/11/15 05:11:13;;;;;;;7.90;7.10;;;13.90;99.90;;;;;;5051878;28;20773;-67
2022/11/15 05:13:39;;;;;;;8.87;7.97;;;13.90;99.90;;;;;;5052889;28;20184;-67
2022/11/15 05:16:05;;;;;;;8.60;7.80;;;13.90;99.90;;;;;;5051977;28;20220;-67
2022/11/15 05:18:31;;;;;;;8.13;7.33;;;13.80;99.90;;;;;;5051960;28;20177;-67
2022/11/15 05:21:03;;;;;;;11.30;10.40;;;13.70;99.90;;;;;;5035264;28;20423;-67
2022/11/15 05:23:29;;;;;;;8.50;7.70;;;13.70;99.90;;;;;;5052157;28;20189;-67
2022/11/15 05:25:59;;;;;;;8.50;7.23;;;13.70;99.90;;;;;;5051829;28;20998;-67
2022/11/15 05:28:25;;;;;;;12.03;10.60;;;13.70;99.90;;;;;;5051435;28;20192;-67
2022/11/15 05:30:51;;;;;;;10.43;9.63;;;13.80;99.90;;;;;;5052908;28;20576;-67
2022/11/15 05:33:17;;;;;;;9.73;8.83;;;13.80;99.90;;;;;;5046040;28;20641;-68
2022/11/15 05:35:48;;;;;;;9.77;8.87;;;13.80;99.90;;;;;;5052609;28;20220;-67
2022/11/15 05:38:14;;;;;;;8.77;8.07;;;13.80;99.90;;;;;;5051098;28;20984;-68
2022/11/15 05:40:40;;;;;;;9.50;8.80;;;13.90;99.90;;;;;;5034715;28;20873;-67
2022/11/15 05:43:06;;;;;;;9.80;9.00;;;13.80;99.90;;;;;;5033735;28;20462;-67
2022/11/15 05:45:34;;;;;;;9.90;9.00;;;13.80;99.90;;;;;;5034310;28;20195;-67
2022/11/15 05:48:00;;;;;;;8.50;7.70;;;13.80;99.90;;;;;;5043930;28;20188;-67
2022/11/15 05:50:27;;;;;;;8.20;7.40;;;13.70;99.90;;;;;;5051872;28;20530;-67
2022/11/15 05:52:54;;;;;;;8.20;7.37;;;13.70;99.90;;;;;;5052587;28;20422;-67
2022/11/15 05:55:20;;;;;;;9.57;8.67;;;13.80;99.90;;;;;;5051833;28;20509;-66
2022/11/15 05:57:46;;;;;;;8.00;7.30;;;13.80;99.90;;;;;;5042429;28;20772;-67
2022/11/15 06:00:12;;;;;;;8.50;7.70;;;13.70;99.90;;;;;;5030975;28;20451;-70
2022/11/15 06:02:38;;;;;;;8.77;8.00;;;13.70;99.90;;;;;;5036486;28;20438;-67
2022/11/15 06:05:04;;;;;;;11.07;9.70;;;13.70;99.90;;;;;;5044741;28;20437;-68
2022/11/15 06:07:30;;;;;;;37.27;25.60;;;13.60;99.90;;;;;;5030316;28;20220;-67
2022/11/15 06:09:56;;;;;;;15.30;11.80;;;13.70;99.90;;;;;;5031520;28;20411;-68
2022/11/15 06:12:22;;;;;;;8.37;7.57;;;13.70;99.90;;;;;;5031124;28;20447;-67
2022/11/15 06:14:47;;;;;;;7.97;7.27;;;13.70;99.90;;;;;;5032309;28;20211;-67
2022/11/15 06:17:13;;;;;;;7.43;6.93;;;13.70;99.90;;;;;;5047145;28;20175;-67
2022/11/15 06:19:39;;;;;;;6.60;5.93;;;13.70;99.90;;;;;;5024610;28;20179;-68
2022/11/15 06:22:05;;;;;;;8.00;7.30;;;13.70;99.90;;;;;;5044661;28;20187;-67
2022/11/15 06:24:30;;;;;;;7.50;7.00;;;13.60;99.90;;;;;;5043412;28;20181;-67
2022/11/15 06:26:57;;;;;;;9.07;8.27;;;13.60;99.90;;;;;;5055496;28;20269;-66
2022/11/15 06:29:23;;;;;;;8.50;7.70;;;13.70;99.90;;;;;;5050793;28;20183;-66
2022/11/15 06:31:48;;;;;;;8.40;7.70;;;13.80;99.90;;;;;;5037493;28;20775;-65
2022/11/15 06:34:14;;;;;;;8.47;7.00;;;13.90;99.90;;;;;;5034635;28;20523;-66
2022/11/15 06:36:40;;;;;;;10.23;6.93;;;13.90;99.90;;;;;;5055624;28;20189;-66
2022/11/15 06:39:06;;;;;;;6.90;6.27;;;14.00;99.90;;;;;;5055992;28;20283;-66
2022/11/15 06:41:35;;;;;;;7.23;6.30;;;13.90;99.90;;;;;;5055067;28;20209;-66
2022/11/15 06:44:00;;;;;;;6.30;5.80;;;14.00;99.90;;;;;;5055842;28;20422;-69
2022/11/15 06:46:26;;;;;;;5.73;5.33;;;14.00;99.90;;;;;;5055166;28;20412;-68
2022/11/15 06:48:52;;;;;;;5.70;5.30;;;13.90;99.90;;;;;;5054794;28;20189;-68
2022/11/15 06:51:18;;;;;;;6.93;6.37;;;14.10;99.90;;;;;;5054925;28;20181;-68
2022/11/15 06:53:44;;;;;;;6.30;5.80;;;13.90;99.90;;;;;;5037802;28;20473;-66
2022/11/15 06:56:09;;;;;;;6.90;6.37;;;14.00;99.90;;;;;;5055362;28;20215;-68
2022/11/15 06:58:36;;;;;;;11.43;9.47;;;14.00;99.90;;;;;;5054758;28;20180;-68
2022/11/15 07:01:08;;;;;;;5.73;4.97;;;14.00;99.90;;;;;;5055010;28;20261;-67
2022/11/15 07:03:41;;;;;;;6.63;6.13;;;14.00;99.90;;;;;;5035354;28;20430;-68
2022/11/15 07:06:08;;;;;;;6.10;5.50;;;14.20;99.90;;;;;;5042819;28;20506;-68
2022/11/15 07:08:35;;;;;;;5.87;5.37;;;14.10;99.90;;;;;;5016759;28;20459;-67
2022/11/15 07:11:03;;;;;;;5.00;4.60;;;14.10;99.90;;;;;;5052713;28;20435;-68
2022/11/15 07:13:34;;;;;;;9.70;8.80;;;14.20;99.90;;;;;;5034665;28;20450;-67
2022/11/15 07:16:05;;;;;;;8.90;8.00;;;14.20;99.90;;;;;;5035236;28;20509;-67
2022/11/15 07:18:31;;;;;;;4.83;4.30;;;14.20;99.90;;;;;;5044461;28;20909;-67
2022/11/15 07:21:00;;;;;;;4.77;4.47;;;14.10;99.90;;;;;;5037070;28;20418;-67
2022/11/15 07:23:26;;;;;;;6.10;5.50;;;13.90;99.90;;;;;;5034959;28;20259;-67
2022/11/15 07:25:52;;;;;;;5.17;4.77;;;13.80;99.90;;;;;;5034995;28;20910;-67
2022/11/15 07:28:17;;;;;;;4.73;4.37;;;13.80;99.90;;;;;;5038264;28;20172;-67
2022/11/15 07:30:43;;;;;;;4.50;4.20;;;13.90;99.90;;;;;;5050541;28;20196;-67
2022/11/15 07:33:08;;;;;;;5.33;5.00;;;13.90;99.90;;;;;;5050851;28;20573;-67
2022/11/15 07:35:34;;;;;;;4.90;4.50;;;13.90;99.90;;;;;;5047799;28;20282;-67
2022/11/15 07:38:01;;;;;;;10.23;9.30;;;13.80;99.90;;;;;;5035222;28;20224;-67
2022/11/15 07:40:29;;;;;;;6.70;6.00;;;13.80;99.90;;;;;;5029659;28;20528;-67
2022/11/15 07:43:02;;;;;;;3.77;3.47;;;13.80;99.90;;;;;;5044028;28;20456;-67
2022/11/15 07:45:29;;;;;;;4.30;3.90;;;13.70;99.90;;;;;;5050226;28;20961;-67
2022/11/15 07:47:55;;;;;;;5.23;4.83;;;13.70;99.90;;;;;;5034590;28;20419;-67
2022/11/15 07:50:25;;;;;;;4.30;4.00;;;13.80;99.90;;;;;;5037375;28;20965;-67
2022/11/15 07:52:56;;;;;;;3.97;3.67;;;13.90;99.90;;;;;;5038678;28;20524;-67
2022/11/15 07:55:27;;;;;;;4.67;4.37;;;14.00;99.90;;;;;;5049405;28;20529;-67
2022/11/15 07:57:53;;;;;;;4.70;4.50;;;13.90;99.90;;;;;;5039305;28;20434;-68
2022/11/15 08:00:19;;;;;;;4.40;4.10;;;13.90;99.90;;;;;;5049633;28;20916;-67
2022/11/15 08:02:45;;;;;;;3.27;3.17;;;13.90;99.90;;;;;;5034426;28;20498;-67
2022/11/15 08:05:11;;;;;;;3.60;3.40;;;14.00;99.90;;;;;;5044518;28;20432;-66
2022/11/15 08:07:37;;;;;;;4.03;3.73;;;13.90;99.90;;;;;;5018012;28;20527;-67
2022/11/15 08:10:05;;;;;;;4.73;4.43;;;13.90;99.90;;;;;;5052598;28;20447;-67
2022/11/15 08:12:31;;;;;;;4.60;4.20;;;14.00;99.90;;;;;;5053452;28;20472;-67
2022/11/15 08:14:57;;;;;;;4.03;3.70;;;13.80;99.90;;;;;;5054013;28;20552;-66
2022/11/15 08:17:24;;;;;;;4.50;4.20;;;13.90;99.90;;;;;;5049673;28;20430;-66
2022/11/15 08:19:50;;;;;;;4.90;4.60;;;13.90;99.90;;;;;;5041403;28;20183;-67
2022/11/15 08:22:15;;;;;;;3.37;3.17;;;14.00;99.90;;;;;;5049960;28;20934;-67
2022/11/15 08:24:41;;;;;;;4.83;4.63;;;14.10;99.90;;;;;;5052579;28;20423;-67
2022/11/15 08:27:16;;;;;;;4.53;4.07;;;13.90;99.90;;;;;;5046021;28;20173;-66
2022/11/15 08:29:43;;;;;;;5.53;5.13;;;14.00;99.90;;;;;;5034234;28;20175;-67
2022/11/15 08:32:10;;;;;;;3.10;2.87;;;14.00;99.90;;;;;;5033730;28;20474;-67
2022/11/15 08:34:39;;;;;;;5.30;5.00;;;14.10;99.90;;;;;;5032980;28;20427;-67
2022/11/15 08:37:05;;;;;;;4.83;4.60;;;14.10;99.90;;;;;;5033672;28;20499;-67
2022/11/15 08:39:31;;;;;;;3.70;3.40;;;14.20;99.90;;;;;;5044662;28;20950;-66
2022/11/15 08:41:57;;;;;;;4.07;3.87;;;14.30;99.90;;;;;;5051919;28;20488;-67
2022/11/15 08:44:23;;;;;;;3.33;3.23;;;14.50;99.90;;;;;;5052788;28;20408;-67
2022/11/15 08:46:50;;;;;;;2.90;2.70;;;14.70;99.90;;;;;;5052009;28;20213;-67
2022/11/15 08:49:16;;;;;;;3.40;3.20;;;14.70;99.90;;;;;;5053327;28;20420;-66
2022/11/15 08:51:41;;;;;;;3.50;3.20;;;14.90;99.90;;;;;;5052726;28;20449;-67
2022/11/15 08:54:07;;;;;;;3.70;3.43;;;15.20;99.90;;;;;;5053229;28;20415;-67
2022/11/15 08:56:33;;;;;;;3.80;3.50;;;15.40;99.90;;;;;;5034664;28;20219;-67
2022/11/15 08:58:59;;;;;;;3.57;3.37;;;15.70;99.90;;;;;;5053234;28;20188;-67
2022/11/15 09:01:24;;;;;;;3.40;3.20;;;15.80;99.90;;;;;;5052610;28;20200;-65
2022/11/15 09:03:50;;;;;;;3.63;3.43;;;15.90;99.90;;;;;;5051342;28;20177;-67
2022/11/15 09:06:16;;;;;;;4.10;3.90;;;16.00;99.90;;;;;;5045670;28;20178;-67
2022/11/15 09:08:42;;;;;;;4.57;4.13;;;16.30;99.90;;;;;;5050708;28;20589;-67
2022/11/15 09:11:09;;;;;;;5.37;5.13;;;16.50;99.90;;;;;;5050877;28;20178;-67
2022/11/15 09:13:36;;;;;;;4.63;4.27;;;16.50;99.60;;;;;;5051420;28;20543;-66
2022/11/15 09:16:03;;;;;;;4.30;4.10;;;16.50;99.10;;;;;;5052096;28;20478;-66
2022/11/15 09:18:30;;;;;;;3.10;2.90;;;16.60;99.30;;;;;;5033727;28;20929;-66
2022/11/15 09:20:59;;;;;;;5.10;4.80;;;16.60;99.30;;;;;;5052091;28;20808;-66
2022/11/15 09:23:26;;;;;;;4.23;3.93;;;16.40;99.50;;;;;;5051905;28;20419;-67
2022/11/15 09:25:52;;;;;;;3.40;3.10;;;16.40;99.50;;;;;;5052412;28;20412;-66
2022/11/15 09:28:18;;;;;;;4.20;4.00;;;16.50;99.50;;;;;;5052631;28;20412;-66
2022/11/15 09:30:44;;;;;;;3.20;3.00;;;16.30;99.40;;;;;;5034326;28;20423;-66
2022/11/15 09:33:11;;;;;;;3.27;3.17;;;16.20;99.20;;;;;;5034749;28;20778;-66
2022/11/15 09:35:36;;;;;;;2.97;2.87;;;16.30;99.40;;;;;;5051936;28;20464;-66
2022/11/15 09:38:03;;;;;;;3.70;3.50;;;16.30;99.30;;;;;;5051326;28;20916;-66
2022/11/15 09:40:31;;;;;;;3.97;3.43;;;16.30;99.00;;;;;;5051948;28;20216;-67
2022/11/15 09:43:46;;;;;;;2.93;2.83;;;16.10;99.00;;;;;;5035013;28;20407;-66
2022/11/15 09:46:22;;;;;;;3.60;3.30;;;16.00;98.60;;;;;;5051916;28;20435;-66
2022/11/15 09:48:53;;;;;;;3.43;3.23;;;15.70;99.90;;;;;;5052601;28;20442;-66
2022/11/15 09:51:26;;;;;;;4.00;3.80;;;15.90;99.70;;;;;;5052426;28;20446;-66
2022/11/15 09:54:07;;;;;;;6.40;3.80;;;16.00;99.90;;;;;;5052534;28;20406;-66
2022/11/15 09:56:36;;;;;;;6.20;4.30;;;16.10;99.30;;;;;;5051858;28;20450;-67
2022/11/15 09:59:35;;;;;;;3.60;3.30;;;16.20;98.80;;;;;;5053999;28;20408;-66
2022/11/15 10:02:29;;;;;;;4.10;3.90;;;16.10;98.80;;;;;;5056543;28;20399;-66
2022/11/15 10:04:56;;;;;;;4.90;4.60;;;16.10;98.70;;;;;;5056470;28;20449;-66
2022/11/15 10:07:27;;;;;;;5.50;5.10;;;16.40;98.10;;;;;;5056214;28;20513;-66
2022/11/15 10:09:57;;;;;;;3.90;3.37;;;16.70;96.80;;;;;;5054679;28;20788;-67
2022/11/15 10:12:25;;;;;;;3.93;3.73;;;17.10;96.80;;;;;;5056526;28;20769;-66
2022/11/15 10:15:01;;;;;;;3.00;2.90;;;17.30;95.20;;;;;;5038340;28;20839;-67
2022/11/15 10:17:41;;;;;;;3.33;3.23;;;17.10;95.70;;;;;;5055766;28;20423;-67
2022/11/15 10:20:13;;;;;;;2.90;2.70;;;17.30;95.10;;;;;;5055296;28;20777;-66
2022/11/15 10:22:50;;;;;;;3.50;3.20;;;17.70;94.40;;;;;;5037696;28;20751;-67
2022/11/15 10:25:22;;;;;;;3.17;2.50;;;17.70;93.50;;;;;;5056481;28;20730;-66
2022/11/15 10:28:00;;;;;;;2.70;2.60;;;17.50;92.70;;;;;;5037738;28;20407;-66
2022/11/15 10:30:51;;;;;;;2.90;2.70;;;17.40;93.40;;;;;;5037382;28;20874;-65
2022/11/15 10:33:31;;;;;;;2.90;2.60;;;17.70;93.20;;;;;;5046285;28;20835;-66
2022/11/15 10:36:09;;;;;;;3.20;3.00;;;17.90;92.00;;;;;;5037924;28;20458;-67
2022/11/15 10:38:49;;;;;;;2.40;2.30;;;18.20;91.60;;;;;;5055304;28;20431;-67
2022/11/15 10:41:23;;;;;;;4.50;3.00;;;17.70;91.10;;;;;;5055785;28;20443;-66
2022/11/15 10:44:07;;;;;;;4.40;4.20;;;17.90;92.10;;;;;;5020753;28;20424;-66
2022/11/15 10:46:40;;;;;;;4.50;4.30;;;18.00;90.80;;;;;;5054755;28;20515;-67
2022/11/15 10:49:17;;;;;;;3.50;3.30;;;17.70;91.00;;;;;;5054443;28;20492;-67
2022/11/15 10:51:48;;;;;;;3.90;3.70;;;18.10;91.00;;;;;;5051551;28;20942;-66
2022/11/15 10:54:27;;;;;;;3.40;3.20;;;18.40;90.70;;;;;;5055648;28;20400;-67
2022/11/15 10:56:55;;;;;;;2.30;2.20;;;18.60;90.00;;;;;;5055700;28;20412;-66
2022/11/15 10:59:28;;;;;;;2.30;2.20;;;18.80;88.30;;;;;;5055488;28;20404;-66
2022/11/15 11:01:54;;;;;;;3.70;3.47;;;18.70;86.80;;;;;;5055197;28;20925;-67
2022/11/15 11:04:20;;;;;;;3.13;2.93;;;18.60;87.80;;;;;;5055369;28;20428;-66
2022/11/15 11:06:50;;;;;;;4.00;3.80;;;18.70;86.80;;;;;;5054579;28;20495;-67
2022/11/15 11:09:35;;;;;;;3.20;3.10;;;18.80;86.50;;;;;;5054463;28;20975;-67
2022/11/15 11:12:02;;;;;;;2.70;2.60;;;18.90;83.40;;;;;;5054919;28;20506;-66
2022/11/15 11:14:31;;;;;;;2.33;2.23;;;18.80;82.30;;;;;;5054572;28;20855;-67
2022/11/15 11:17:13;;;;;;;3.73;3.53;;;18.70;81.10;;;;;;5055553;28;20485;-67
2022/11/15 11:20:03;;;;;;;3.20;3.00;;;18.90;81.60;;;;;;5053512;28;20447;-67
2022/11/15 11:22:34;;;;;;;2.20;2.10;;;19.30;81.30;;;;;;5054469;28;20400;-67
2022/11/15 11:25:09;;;;;;;2.63;2.40;;;19.50;79.20;;;;;;5037350;28;20434;-67
2022/11/15 11:27:53;;;;;;;2.70;2.60;;;19.20;79.60;;;;;;5054723;28;20415;-67
2022/11/15 11:30:24;;;;;;;2.70;2.60;;;19.30;80.40;;;;;;5054655;28;20423;-67
2022/11/15 11:33:24;;;;;;;2.70;2.60;;;19.70;78.70;;;;;;5054027;28;20907;-67
2022/11/15 11:36:07;;;;;;;2.50;2.40;;;20.00;76.10;;;;;;5054125;28;20448;-67
2022/11/15 11:39:09;;;;;;;1.83;1.70;;;20.30;74.50;;;;;;5036494;28;20828;-67
2022/11/15 11:41:54;;;;;;;4.03;3.77;;;20.10;69.90;;;;;;5054164;28;20447;-67
2022/11/15 11:44:22;;;;;;;2.13;2.03;;;19.70;71.80;;;;;;5054505;28;20421;-66
2022/11/15 11:46:52;;;;;;;2.30;2.20;;;19.60;71.70;;;;;;5053921;28;20454;-67
2022/11/15 11:49:40;;;;;;;3.10;3.00;;;19.80;71.50;;;;;;5053607;28;20428;-67
2022/11/15 11:52:12;;;;;;;2.90;2.80;;;19.70;70.30;;;;;;5054481;28;20411;-67
2022/11/15 11:54:55;;;;;;;2.73;2.63;;;19.90;69.20;;;;;;5053531;28;20417;-67
2022/11/15 11:57:43;;;;;;;3.00;2.60;;;19.50;70.60;;;;;;5054254;28;20762;-66
2022/11/15 12:00:19;;;;;;;3.80;3.43;;;19.50;69.00;;;;;;5053359;28;20432;-66
2022/11/15 12:03:07;;;;;;;2.40;2.30;;;19.50;68.50;;;;;;5053596;28;20423;-66
2022/11/15 12:05:39;;;;;;;2.43;2.23;;;19.40;67.80;;;;;;5053698;28;20973;-67
2022/11/15 12:08:32;;;;;;;2.60;2.40;;;18.80;65.50;;;;;;5054232;28;20970;-66
2022/11/15 12:11:16;;;;;;;3.50;3.40;;;18.40;66.60;;;;;;5054129;28;20419;-67
2022/11/15 12:13:43;;;;;;;3.30;3.20;;;18.10;67.80;;;;;;5035729;28;20891;-67
2022/11/15 12:16:28;;;;;;;2.80;2.07;;;17.90;67.90;;;;;;5053971;28;20464;-67
2022/11/15 12:18:56;;;;;;;2.87;2.67;;;17.90;67.60;;;;;;5053709;28;20401;-66
2022/11/15 12:21:31;;;;;;;3.27;3.07;;;18.00;68.10;;;;;;5053184;28;20958;-66
2022/11/15 12:24:26;;;;;;;1.93;1.83;;;17.80;69.20;;;;;;5054133;28;20450;-66
2022/11/15 12:27:07;;;;;;;2.50;2.30;;;17.60;68.90;;;;;;5053240;28;20753;-66
2022/11/15 12:29:43;;;;;;;2.50;2.40;;;17.10;71.10;;;;;;5052502;28;20439;-67
2022/11/15 12:32:33;;;;;;;2.83;2.63;;;17.20;71.80;;;;;;5036172;28;20436;-66
2022/11/15 12:35:01;;;;;;;2.70;2.60;;;17.20;73.00;;;;;;5053773;28;20455;-66
2022/11/15 12:37:40;;;;;;;3.47;3.30;;;17.10;73.60;;;;;;5053643;28;20405;-66
2022/11/15 12:40:27;;;;;;;3.40;3.30;;;16.90;75.00;;;;;;5053234;28;20424;-66
2022/11/15 12:43:39;;;;;;;2.73;2.63;;;17.00;75.50;;;;;;5052895;28;20938;-66
2022/11/15 12:46:11;;;;;;;2.80;2.70;;;17.10;77.00;;;;;;5053155;28;20432;-66
2022/11/15 12:48:37;;;;;;;2.80;2.60;;;17.10;77.40;;;;;;5052930;28;20416;-66
2022/11/15 12:51:03;;;;;;;2.97;2.77;;;17.10;77.90;;;;;;5053359;28;20431;-66
2022/11/15 12:53:34;;;;;;;3.20;3.00;;;17.10;78.30;;;;;;5053287;28;20487;-66
2022/11/15 12:56:12;;;;;;;2.87;2.67;;;17.20;80.50;;;;;;5035194;28;20464;-66
2022/11/15 12:58:52;;;;;;;2.63;2.43;;;17.30;79.00;;;;;;5052545;28;20438;-66
2022/11/15 13:01:33;;;;;;;2.90;2.80;;;17.40;78.90;;;;;;5052136;28;20488;-66
2022/11/15 13:04:21;;;;;;;4.23;3.93;;;17.20;79.30;;;;;;5052955;28;20452;-66
2022/11/15 13:06:51;;;;;;;4.33;2.60;;;17.10;79.90;;;;;;5051953;28;20802;-66
2022/11/15 13:09:32;;;;;;;3.23;3.13;;;16.70;81.30;;;;;;5052826;28;20420;-66
2022/11/15 13:12:01;;;;;;;3.00;2.80;;;16.50;81.40;;;;;;5052336;28;20426;-66
2022/11/15 13:14:42;;;;;;;2.87;2.67;;;16.60;82.40;;;;;;5052902;28;20416;-66
2022/11/15 13:17:20;;;;;;;4.17;3.97;;;16.30;82.90;;;;;;5052845;28;20423;-66
2022/11/15 13:20:11;;;;;;;3.23;3.03;;;16.20;84.30;;;;;;5010031;28;20557;-66